sensor_id;sensor_type;location;lat;lon;timestamp;pressure;altitude;pressure_sealevel;temperature;humidity
26839;BME280;40088;51.214;6.786;2023-02-15T00:05:35;102639.84;;;16.92;49.19
26839;BME280;40088;51.214;6.786;2023-02-15T00:15:35;102623.31;;;16.92;49.27
26839;BME280;40088;51.214;6.786;2023-02-15T00:25:36;102628.81;;;16.92;49.27
26839;BME280;40088;51.214;6.786;2023-02-15T00:35:36;102618.84;;;16.91;49.25
26839;BME280;40088;51.214;6.786;2023-02-15T00:45:36;102618.84;;;16.91;49.21
26839;BME280;40088;51.214;6.786;2023-02-15T00:55:37;102613.31;;;16.91;49.04
26839;BME280;40088;51.214;6.786;2023-02-15T01:05:37;102606.78;;;16.92;48.94
26839;BME280;40088;51.214;6.786;2023-02-15T01:15:37;102607.94;;;16.89;48.96
26839;BME280;40088;51.214;6.786;2023-02-15T01:25:38;102606.06;;;16.90;48.95
26839;BME280;40088;51.214;6.786;2023-02-15T01:35:38;102601.44;;;16.90;48.89
26839;BME280;40088;51.214;6.786;2023-02-15T01:45:39;102597.66;;;16.91;48.79
26839;BME280;40088;51.214;6.786;2023-02-15T01:56:24;102578.53;;;16.90;48.83
26839;BME280;40088;51.214;6.786;2023-02-15T02:06:05;102574.91;;;16.89;48.91
26839;BME280;40088;51.214;6.786;2023-02-15T02:16:18;102564.75;;;16.90;48.74
26839;BME280;40088;51.214;6.786;2023-02-15T02:36:44;102542.03;;;16.88;48.78
26839;BME280;40088;51.214;6.786;2023-02-15T02:46:59;102532.03;;;16.87;48.89
26839;BME280;40088;51.214;6.786;2023-02-15T02:57:05;102527.22;;;16.89;48.73
26839;BME280;40088;51.214;6.786;2023-02-15T03:07:12;102507.97;;;16.89;48.61
26839;BME280;40088;51.214;6.786;2023-02-15T03:17:14;102503.47;;;16.88;48.75
26839;BME280;40088;51.214;6.786;2023-02-15T03:27:19;102503.47;;;16.88;48.77
26839;BME280;40088;51.214;6.786;2023-02-15T03:37:37;102490.72;;;16.87;48.53
26839;BME280;40088;51.214;6.786;2023-02-15T03:47:44;102500.72;;;16.88;48.78
26839;BME280;40088;51.214;6.786;2023-02-15T03:57:46;102494.19;;;16.89;48.57
26839;BME280;40088;51.214;6.786;2023-02-15T04:08:06;102494.19;;;16.89;48.41
26839;BME280;40088;51.214;6.786;2023-02-15T04:18:06;102491.44;;;16.89;48.49
26839;BME280;40088;51.214;6.786;2023-02-15T04:28:07;102490.56;;;16.88;48.38
26839;BME280;40088;51.214;6.786;2023-02-15T04:38:07;102495.22;;;16.88;48.55
26839;BME280;40088;51.214;6.786;2023-02-15T04:48:08;102481.44;;;16.88;48.25
26839;BME280;40088;51.214;6.786;2023-02-15T04:58:08;102487.81;;;16.88;48.38
26839;BME280;40088;51.214;6.786;2023-02-15T05:08:08;102482.31;;;16.88;48.33
26839;BME280;40088;51.214;6.786;2023-02-15T05:18:08;102464.94;;;16.88;48.39
26839;BME280;40088;51.214;6.786;2023-02-15T05:28:10;102464.94;;;16.88;48.38
26839;BME280;40088;51.214;6.786;2023-02-15T05:38:20;102462.88;;;16.90;48.23
26839;BME280;40088;51.214;6.786;2023-02-15T05:48:23;102445.50;;;16.89;48.18
26839;BME280;40088;51.214;6.786;2023-02-15T05:58:25;102436.38;;;16.89;48.09
26839;BME280;40088;51.214;6.786;2023-02-15T06:08:27;102450.13;;;16.89;48.10
26839;BME280;40088;51.214;6.786;2023-02-15T06:18:27;102454.78;;;16.88;48.14
26839;BME280;40088;51.214;6.786;2023-02-15T06:28:27;102472.16;;;16.89;48.17
26839;BME280;40088;51.214;6.786;2023-02-15T06:38:27;102472.16;;;16.89;48.17
26839;BME280;40088;51.214;6.786;2023-02-15T06:48:28;102467.50;;;16.89;48.14
26839;BME280;40088;51.214;6.786;2023-02-15T06:58:28;102467.69;;;16.88;48.15
26839;BME280;40088;51.214;6.786;2023-02-15T07:08:29;102461.16;;;16.89;47.91
26839;BME280;40088;51.214;6.786;2023-02-15T07:18:29;102457.53;;;16.88;47.98
26839;BME280;40088;51.214;6.786;2023-02-15T07:28:30;102445.50;;;16.89;47.91
26839;BME280;40088;51.214;6.786;2023-02-15T07:48:34;102412.44;;;16.89;48.02
26839;BME280;40088;51.214;6.786;2023-02-15T07:58:34;102413.31;;;16.90;47.98
26839;BME280;40088;51.214;6.786;2023-02-15T08:08:53;102400.56;;;16.89;47.99
26839;BME280;40088;51.214;6.786;2023-02-15T08:18:55;102409.56;;;16.91;48.35
26839;BME280;40088;51.214;6.786;2023-02-15T08:28:57;102389.56;;;16.89;48.03
26839;BME280;40088;51.214;6.786;2023-02-15T08:38:58;102391.28;;;16.90;48.06
26839;BME280;40088;51.214;6.786;2023-02-15T08:48:59;102388.41;;;16.91;47.95
26839;BME280;40088;51.214;6.786;2023-02-15T08:58:59;102377.50;;;16.90;48.05
26839;BME280;40088;51.214;6.786;2023-02-15T09:09:00;102371.00;;;16.91;47.79
26839;BME280;40088;51.214;6.786;2023-02-15T09:19:01;102370.16;;;16.90;48.04
26839;BME280;40088;51.214;6.786;2023-02-15T09:29:02;102370.16;;;16.90;47.93
26839;BME280;40088;51.214;6.786;2023-02-15T09:39:13;102383.91;;;16.90;47.90
26839;BME280;40088;51.214;6.786;2023-02-15T10:00:05;102375.50;;;16.92;48.09
26839;BME280;40088;51.214;6.786;2023-02-15T10:20:37;102367.22;;;16.92;48.04
26839;BME280;40088;51.214;6.786;2023-02-15T10:30:46;102364.47;;;16.92;48.03
26839;BME280;40088;51.214;6.786;2023-02-15T10:51:02;102348.66;;;16.94;48.07
26839;BME280;40088;51.214;6.786;2023-02-15T11:01:14;102345.38;;;16.90;48.08
26839;BME280;40088;51.214;6.786;2023-02-15T11:11:29;102341.41;;;16.93;48.21
26839;BME280;40088;51.214;6.786;2023-02-15T11:21:36;102336.22;;;16.90;48.24
26839;BME280;40088;51.214;6.786;2023-02-15T11:31:48;102340.56;;;16.92;48.00
26839;BME280;40088;51.214;6.786;2023-02-15T11:41:53;102317.66;;;16.92;48.17
26839;BME280;40088;51.214;6.786;2023-02-15T11:51:56;102301.16;;;16.92;48.22
26839;BME280;40088;51.214;6.786;2023-02-15T12:01:57;102284.63;;;16.92;48.19
26839;BME280;40088;51.214;6.786;2023-02-15T12:22:29;102253.13;;;16.95;47.95
26839;BME280;40088;51.214;6.786;2023-02-15T12:32:34;102250.56;;;16.93;48.12
26839;BME280;40088;51.214;6.786;2023-02-15T12:42:43;102232.31;;;16.92;48.03
26839;BME280;40088;51.214;6.786;2023-02-15T12:52:46;102223.03;;;16.93;48.09
26839;BME280;40088;51.214;6.786;2023-02-15T13:02:57;102214.75;;;16.93;48.00
26839;BME280;40088;51.214;6.786;2023-02-15T13:12:58;102199.81;;;16.96;48.22
26839;BME280;40088;51.214;6.786;2023-02-15T13:23:02;102190.66;;;16.95;48.19
26839;BME280;40088;51.214;6.786;2023-02-15T13:33:06;102176.22;;;16.93;48.38
26839;BME280;40088;51.214;6.786;2023-02-15T14:24:46;102143.72;;;16.97;48.54
26839;BME280;40088;51.214;6.786;2023-02-15T14:34:55;102139.25;;;16.96;48.32
26839;BME280;40088;51.214;6.786;2023-02-15T14:45:06;102136.50;;;16.96;48.48
26839;BME280;40088;51.214;6.786;2023-02-15T14:55:34;102124.59;;;16.95;48.49
26839;BME280;40088;51.214;6.786;2023-02-15T15:05:47;102122.72;;;16.96;48.28
26839;BME280;40088;51.214;6.786;2023-02-15T15:15:52;102121.69;;;16.97;48.36
26839;BME280;40088;51.214;6.786;2023-02-15T15:25:59;102119.78;;;16.97;48.42
26839;BME280;40088;51.214;6.786;2023-02-15T15:46:45;102135.44;;;16.97;48.44
26839;BME280;40088;51.214;6.786;2023-02-15T15:57:02;102121.50;;;16.98;48.58
26839;BME280;40088;51.214;6.786;2023-02-15T16:07:22;102128.06;;;16.97;48.55
26839;BME280;40088;51.214;6.786;2023-02-15T16:17:25;102113.25;;;16.98;48.43
26839;BME280;40088;51.214;6.786;2023-02-15T16:27:36;102119.78;;;16.97;48.69
26839;BME280;40088;51.214;6.786;2023-02-15T16:37:37;102113.94;;;17.00;48.72
26839;BME280;40088;51.214;6.786;2023-02-15T16:47:43;102124.25;;;16.98;48.76
26839;BME280;40088;51.214;6.786;2023-02-15T16:57:45;102127.72;;;17.00;48.70
26839;BME280;40088;51.214;6.786;2023-02-15T17:18:19;102148.88;;;17.00;48.77
26839;BME280;40088;51.214;6.786;2023-02-15T17:28:25;102160.75;;;17.00;48.72
26839;BME280;40088;51.214;6.786;2023-02-15T17:38:26;102154.38;;;17.00;48.86
26839;BME280;40088;51.214;6.786;2023-02-15T17:48:35;102161.66;;;17.01;48.78
26839;BME280;40088;51.214;6.786;2023-02-15T17:58:36;102171.78;;;17.00;48.61
26839;BME280;40088;51.214;6.786;2023-02-15T18:08:36;102174.53;;;17.00;48.85
26839;BME280;40088;51.214;6.786;2023-02-15T18:18:56;102167.28;;;16.99;48.88
26839;BME280;40088;51.214;6.786;2023-02-15T18:28:56;102173.66;;;17.00;48.77
26839;BME280;40088;51.214;6.786;2023-02-15T18:38:58;102177.28;;;17.00;48.82
26839;BME280;40088;51.214;6.786;2023-02-15T18:48:59;102176.28;;;17.01;48.80
26839;BME280;40088;51.214;6.786;2023-02-15T18:58:59;102182.78;;;17.00;48.66
26839;BME280;40088;51.214;6.786;2023-02-15T19:08:59;102179.91;;;17.02;48.48
26839;BME280;40088;51.214;6.786;2023-02-15T19:19:00;102173.53;;;17.01;48.69
26839;BME280;40088;51.214;6.786;2023-02-15T19:29:01;102177.81;;;17.04;48.57
26839;BME280;40088;51.214;6.786;2023-02-15T19:39:01;102180.94;;;17.01;48.68
26839;BME280;40088;51.214;6.786;2023-02-15T19:49:01;102176.28;;;17.01;48.77
26839;BME280;40088;51.214;6.786;2023-02-15T19:59:02;102189.00;;;17.02;48.55
26839;BME280;40088;51.214;6.786;2023-02-15T20:09:03;102190.72;;;17.03;48.61
26839;BME280;40088;51.214;6.786;2023-02-15T20:19:03;102205.72;;;17.01;48.67
26839;BME280;40088;51.214;6.786;2023-02-15T20:29:03;102206.41;;;17.03;48.34
26839;BME280;40088;51.214;6.786;2023-02-15T20:39:12;102213.97;;;17.01;48.45
26839;BME280;40088;51.214;6.786;2023-02-15T20:49:13;102214.84;;;17.01;48.47
26839;BME280;40088;51.214;6.786;2023-02-15T20:59:23;102216.56;;;17.02;48.55
26839;BME280;40088;51.214;6.786;2023-02-15T21:09:25;102247.72;;;17.03;48.39
26839;BME280;40088;51.214;6.786;2023-02-15T21:19:26;102235.66;;;17.04;48.61
26839;BME280;40088;51.214;6.786;2023-02-15T21:29:27;102238.59;;;17.02;48.34
26839;BME280;40088;51.214;6.786;2023-02-15T21:39:34;102245.13;;;17.01;48.40
26839;BME280;40088;51.214;6.786;2023-02-15T21:49:35;102229.47;;;17.02;48.45
26839;BME280;40088;51.214;6.786;2023-02-15T21:59:35;102231.19;;;17.03;48.41
26839;BME280;40088;51.214;6.786;2023-02-15T22:09:36;102217.41;;;17.03;48.42
26839;BME280;40088;51.214;6.786;2023-02-15T22:19:36;102211.91;;;17.03;48.39
26839;BME280;40088;51.214;6.786;2023-02-15T22:29:36;102207.25;;;17.03;48.29
26839;BME280;40088;51.214;6.786;2023-02-15T22:39:37;102221.03;;;17.03;48.41
26839;BME280;40088;51.214;6.786;2023-02-15T22:49:37;102214.66;;;17.03;48.33
26839;BME280;40088;51.214;6.786;2023-02-15T22:59:37;102221.03;;;17.03;48.30
26839;BME280;40088;51.214;6.786;2023-02-15T23:09:38;102226.84;;;17.00;48.37
26839;BME280;40088;51.214;6.786;2023-02-15T23:19:38;102226.84;;;17.00;48.25
26839;BME280;40088;51.214;6.786;2023-02-15T23:29:38;102232.34;;;17.00;48.16
26839;BME280;40088;51.214;6.786;2023-02-15T23:39:39;102211.22;;;17.01;48.21
26839;BME280;40088;51.214;6.786;2023-02-15T23:49:57;102223.22;;;17.00;48.08
26839;BME280;40088;51.214;6.786;2023-02-15T23:59:58;102214.97;;;17.00;47.96
